Acme, Canada
Current Conditions -  °F | °C
As of 5:00 AM on Thursday 23 Oct 2014 (Local Time) from CYYC Reporting Station
Scattered Clouds Scattered Clouds  
Wind Chill: 50°   Ceiling: Unl
Heat Index: 50°   Visibility: 15mi
Dew Point: 36°   Wind: 12mph
Humidity: 58%   Direction: 160°SSE
Pressure: 29.53"   Gusts: NA
Location:  51.5°N, 113.5°W
Report Text: CYYC 231100Z 16010KT 15SM SCT240 10/02 A2953 RMK CI3 SLP008 DENSITY ALT 4200FT
Loading
Personal Weather Stations






























Interactive Weather Map
Tropical Storm Tracking
New forecast layout! Learn more

10-Day Weather Forecast

Advertisements
Track Severe Weather on mobile